Monday, November 20, 2017, 1:53 PM EST
Back to Local

KSYR, Syracuse Hancock International Airport

Location: Syracuse, NY, United States Lat: 43.117
Local Time: 1:53 PM EST (18:53 GMT) Lon: -76.1
Time Zone: US/Eastern Elev: 410 ft

Show me the last for .
Show Decoded

2017-11-20 12:54 METAR KSYR 201754Z 24010KT 9SM -SN FEW030 BKN050 OVC065 01/M03 A2996 RMK AO2
                 SLP146 PCPN VERY LIGHT 4/002 933002 P0000 60001 T00061033 10006 21022 51003 =
2017-11-20 11:54 METAR KSYR 201654Z 25017G24KT 9SM -SN FEW040 BKN065 OVC090 01/M04 A2996 RMK AO2
                 PK WND 25027/1639 SLP145 P0000 T00061044 =
2017-11-20 10:54 METAR KSYR 201554Z 24019G26KT 9SM -SN FEW060 BKN080 OVC090 01/M06 A2996 RMK AO2
                 PK WND 24026/1548 SLP146 P0000 T00061056 =
2017-11-20 09:54 METAR KSYR 201454Z 24016KT 9SM -SN FEW045 SCT060 BKN080 00/M05 A2995 RMK AO2
                 SNB06 SLP143 P0000 60001 T00001050 50006 =
2017-11-20 08:54 METAR KSYR 201354Z 25018G23KT 10SM SCT045 SCT065 BKN080 M01/M06 A2995 RMK AO2
                 SNE19 SLP143 P0000 T10111061 =
2017-11-20 07:54 METAR KSYR 201254Z 24008KT 9SM -SN FEW015 SCT035 BKN050 M02/M04 A2995 RMK AO2
                 SLP143 P0001 T10171039 =
2017-11-20 07:40 METAR KSYR 201240Z 23005KT 9SM -SN SCT014 BKN035 BKN045 M02/M03 A2994 RMK AO2
                 P0001 T10221033 =
2017-11-20 07:15 METAR KSYR 201215Z 26004KT 3SM -SN BR FEW007 BKN012 BKN017 M02/M02 A2994 RMK AO2
                 TWR VIS 5 VIS 2 NW P0001 T10171022 $ =
2017-11-20 07:12 METAR KSYR 201212Z 27005KT 2SM -SN BR BKN008 OVC013 M02/M03 A2994 RMK AO2 P0001
                 T10171028 $ =
2017-11-20 06:54 METAR KSYR 201154Z 27007KT 1 1/2SM R28/4500VP6000FT -SN BR BKN008 OVC018 M02/M03
                 A2993 RMK AO2 VIS 3/4 NW SLP137 SNINCR 1/4 4/004 P0002 60011 70035 T10171028
                 11017 21022 51016 $ =
2017-11-20 06:43 METAR KSYR 201143Z 27008KT 1 3/4SM R28/5000VP6000FT -SN BR BKN008 OVC018 M02/M02
                 A2993 RMK AO2 VIS 1/2 NW P0002 T10171022 $ =
2017-11-20 06:21 METAR KSYR 201121Z 28009G18KT 3/4SM R28/4500VP6000FT -SN BR OVC008 M02/M03 A2992
                 RMK AO2 P0001 T10171033 $ =
2017-11-20 06:06 METAR KSYR 201106Z 27005KT 1 1/2SM -SN BR BKN009 OVC018 M02/M02 A2992 =
2017-11-20 06:00 METAR KSYR 201100Z 28004KT 2 1/2SM -SN BR SCT009 BKN019 OVC038 M02/M03 A2992 RMK
                 AO2 VIS 1 1/2 NW P0000 T10171033 $ =
2017-11-20 05:54 METAR KSYR 201054Z 27005KT 4SM -SN BR SCT009 BKN020 OVC037 M02/M03 A2992 RMK AO2
                 VIS 2 1/2 NW SLP134 P0000 T10171028 $ =
2017-11-20 05:47 METAR KSYR 201047Z 26005KT 5SM -SN BR FEW010 BKN021 OVC037 M02/M03 A2992 RMK AO2
                 P0000 T10171033 $ =
2017-11-20 04:54 METAR KSYR 200954Z 24006KT 8SM -SN BKN036 OVC043 M02/M03 A2990 RMK AO2 SNE15B26
                 SLP127 P0000 T10221028 $ =
2017-11-20 04:21 METAR KSYR 200921Z 25005KT 10SM SCT031 BKN042 OVC070 M02/M03 A2989 RMK AO2 SNE15
                 P0000 T10221033 $ =
2017-11-20 03:54 METAR KSYR 200854Z 27008KT 5SM -SN BR SCT022 BKN028 OVC035 M02/M03 A2988 RMK AO2
                 SLP121 P0002 60009 T10221028 51021 $ =
2017-11-20 03:07 METAR KSYR 200807Z 27013KT 3SM -SN BR FEW010 BKN027 OVC034 M02/M03 A2987 RMK AO2
                 P0001 T10221028 $ =
2017-11-20 02:54 METAR KSYR 200754Z 27014KT 2 1/2SM -SN BR FEW008 BKN019 OVC036 M02/M03 A2987 RMK
                 AO2 SLP116 P0003 T10221028 $ =
2017-11-20 02:24 METAR KSYR 200724Z 25011KT 2 1/2SM -SN BR FEW008 BKN016 OVC031 M02/M03 A2986 RMK
                 AO2 P0003 T10221028 $ =
2017-11-20 02:22 METAR KSYR 200722Z 26012KT 1 3/4SM -SN BR SCT007 BKN012 OVC035 M02/M03 A2986 RMK
                 AO2 P0003 T10221028 $ =
2017-11-20 02:17 METAR KSYR 200717Z 25010KT 1/2SM R28/P6000FT SN FZFG SCT007 BKN012 OVC025
                 M02/M03 A2985 =
2017-11-20 02:09 METAR KSYR 200709Z 26010KT 1/2SM R28/3000VP6000FT SN FZFG BKN007 BKN013 OVC020
                 M02/M03 A2985 RMK AO2 P0002 T10221028 $ =
2017-11-20 01:58 METAR KSYR 200658Z 26011KT 1SM R28/4000VP6000FT -SN BR BKN007 OVC019 M02/M03
                 A2985 =
2017-11-20 01:54 METAR KSYR 200654Z 26011KT 1/2SM R28/3000VP6000FT SN FZFG VV008 M02/M03 A2985
                 RMK AO2 SLP108 SNINCR 1/1 P0004 T10221028 $ =
2017-11-20 01:31 METAR KSYR 200631Z 26013KT 3/4SM R28/4000VP6000FT -SN BR VV008 M02/M03 A2984 RMK
                 AO2 P0002 T10221028 $ =
2017-11-20 01:28 METAR KSYR 200628Z 26015KT 1SM R28/5500VP6000FT -SN BR VV008 M02/M03 A2984 RMK
                 AO2 P0002 T10221028 $ =
2017-11-20 01:22 METAR KSYR 200622Z 26012KT 1/2SM R28/2800VP6000FT SN FZFG BKN009 OVC015 M02/M03
                 A2983 RMK AO2 P0001 T10221028 $ =
2017-11-20 01:12 METAR KSYR 200612Z 25014KT 3/4SM R28/3000VP6000FT -SN BR FEW008 BKN014 OVC035
                 M02/M02 A2983 RMK AO2 P0000 T10171022 $ =
2017-11-20 01:09 METAR KSYR 200609Z 26014KT 1 1/4SM R28/4500VP6000FT -SN BR BKN025 OVC037 M02/M03
                 A2983 RMK AO2 P0000 T10171028 $ =
2017-11-20 00:54 METAR KSYR 200554Z 25013KT 2SM -SN BR BKN029 OVC045 M02/M03 A2982 RMK AO2 SLP099
                 4/001 P0001 60015 T10171028 10006 21017 53023 $ =
2017-11-20 00:05 METAR KSYR 200505Z 26017G22KT 2 1/2SM -SN BR BKN026 OVC045 M01/M03 A2980 RMK AO2
                 VIS 1 3/4 NW P0001 T10111033 $ =
2017-11-20 00:00 METAR KSYR 200500Z 26013KT 2 1/2SM -SN BKN030 OVC045 M01/M04 A2980 RMK AO2 VIS 1
                 1/2 NW P0000 T10111039 $ =
2017-11-19 23:54 METAR KSYR 200454Z 26014KT 4SM -SN BKN036 OVC050 M01/M04 A2979 RMK AO2 VIS 2 NW
                 SLP091 P0000 T10111039 401061011 $ =
2017-11-19 23:26 METAR KSYR 200426Z 26017KT 4SM -SN SCT029 OVC065 M01/M04 A2978 RMK AO2 P0000
                 T10111039 $ =
2017-11-19 23:07 METAR KSYR 200407Z 27015KT 2SM -SN SCT029 OVC065 M01/M03 A2978 RMK AO2 P0000
                 T10111033 $ =
2017-11-19 22:54 METAR KSYR 200354Z 25018G25KT 9SM -SN SCT035 OVC055 M01/M04 A2977 RMK AO2 SLP082
                 P0000 T10111039 $ =
2017-11-19 21:54 METAR KSYR 200254Z COR 27018G23KT 9SM -SN FEW029 BKN040 OVC070 00/M03 A2975 RMK
                 AO2 SLP076 P0000 60014 T00001028 53026 $ =
2017-11-19 21:40 METAR KSYR 200240Z 26012KT 9SM -SN SCT029 BKN046 OVC060 00/M01 A2974 RMK AO2
                 P0000 T00001011 $ =
2017-11-19 21:12 METAR KSYR 200212Z 26015KT 9SM -SN FEW009 BKN025 OVC040 00/M01 A2973 RMK AO2
                 P0000 T00001011 $ =
2017-11-19 20:59 METAR KSYR 200159Z 27013KT 6SM -SN BLSN SCT009 BKN015 OVC021 00/M01 A2972 =
2017-11-19 20:54 METAR KSYR 200154Z 27014KT 2SM -SN BLSN BKN007 OVC013 00/M01 A2972 RMK AO2 SNB49
                 SLP065 P0008 T00001011 VISNO NW $ =
2017-11-19 20:09 METAR KSYR 200109Z 26012G22KT 1/4SM R28/2600V4000FT SN FG VV006 00/M01 A2971 RMK
                 AO2 P0002 T00001006 $ =
2017-11-19 19:54 METAR KSYR 200054Z 26013KT 3/4SM R28/P6000FT -SN BR FEW005 OVC010 00/M01 A2970
                 RMK AO2 SLP060 P0006 T00001006 $ =
2017-11-19 19:31 METAR KSYR 200031Z 26011KT 1/2SM R28/2800V5500FT SN FG FEW005 OVC010 00/M01
                 A2969 RMK AO2 P0001 T00001006 $ =
2017-11-19 19:18 METAR KSYR 200018Z 25014KT 3/4SM R28/5500VP6000FT -SN BR FEW006 OVC017 00/M01
                 A2969 RMK AO2 P0000 T00001006 $ =
2017-11-19 19:11 METAR KSYR 200011Z 26013KT 1 3/4SM -SN BR FEW012 BKN026 OVC034 00/M01 A2969 RMK
                 AO2 P0000 T00001006 $ =
2017-11-19 18:54 METAR KSYR 192354Z 26010KT 2SM -SN BR BKN027 OVC035 01/M01 A2968 RMK AO2 SLP052
                 P0000 60001 T00061006 10022 20006 53015 $ =
2017-11-19 18:14 METAR KSYR 192314Z 29011G16KT 8SM -SN BKN029 BKN035 OVC044 01/M01 A2967 RMK AO2
                 P0000 T00111011 $ =
2017-11-19 17:54 METAR KSYR 192254Z 27008KT 9SM -SN SCT032 BKN044 OVC080 01/M01 A2966 RMK AO2
                 DZE2159 SLP044 P0000 T00111011 $ =
2017-11-19 17:13 METAR KSYR 192213Z 29009G18KT 9SM -SN BKN028 BKN043 OVC050 01/M01 A2965 RMK AO2
                 DZE2159 P0000 T00111006 $ =
2017-11-19 16:54 METAR KSYR 192154Z 27014KT 7SM -SNDZ BKN034 OVC046 01/00 A2964 RMK AO2
                 RAB12E21DZB27SNB29 SLP038 P0000 T00110000 $ =
2017-11-19 16:09 METAR KSYR 192109Z 25009KT 10SM FEW018 BKN036 OVC045 02/00 A2964 RMK AO2
                 T00170000 $ =
2017-11-19 15:54 METAR KSYR 192054Z 27009KT 10SM SCT021 BKN029 OVC055 01/00 A2964 RMK AO2 SNE37
                 SLP035 P0001 60001 T00110000 53026 $ =
2017-11-19 15:27 METAR KSYR 192027Z 28009KT 7SM -SN FEW011 BKN023 OVC030 01/M01 A2963 RMK AO2
                 P0001 T00111006 $ =
2017-11-19 15:21 METAR KSYR 192021Z 28013G24KT 2 1/2SM R28/4500VP6000FT -SN BR FEW011 BKN017
                 OVC025 01/M01 A2963 RMK AO2 P0000 T00061006 =
2017-11-19 15:08 METAR KSYR 192008Z 28019G25KT 1 1/2SM R28/5500VP6000FT -SN BR FEW013 BKN025
                 OVC032 01/M01 A2962 RMK AO2 P0000 T00061006 =
2017-11-19 14:54 METAR KSYR 191954Z 27013G25KT 3SM -SN BR FEW011 BKN026 OVC034 01/M01 A2961 RMK
                 AO2 SLP025 P0000 T00111006 =
2017-11-19 13:54 METAR KSYR 191854Z 28011G20KT 9SM -SN FEW025 BKN032 OVC045 02/M01 A2959 RMK AO2
                 PK WND 26028/1829 SLP018 PCPN VERY LIGHT P0000 T00171006 =

Support USWX by starting your Amazon purchase here.